Impacts METAR Board INFO
IDs:

KLGA - New York/La Guardia, NY, US

Updated at: 0159 UTC 24 Jan 2018
Potential Impact None Slight Moderate High
Time23/13Z 23/14Z 23/15Z 23/16Z 23/17Z 23/18Z 23/19Z 23/20Z 23/21Z 23/22Z 23/23Z 24/00Z 24/01Z
VIS1.5 0.75 2 8 10 5 10 10 10 9 10 10 10
CIG4 3 4 5 6 5 250 250 75 47 50 90 --
CoverOVCOVCOVCOVCOVCOVCBKNBKNBKNOVCBKNBKNFEW
FltCatLIFRLIFRLIFRIFRIFRIFRVFRVFRVFRVFRVFRVFRVFR
WX-RA BR-RA BRRA BR-RA-RA-RA BR------+RA------
WDir1801701701701702300250260290290260280
WSpd13 14 12 13 14 10 0 4 4 12 15 14 15
WGst21 18 -- 18 22 -- -- -- -- 17 -- 21 27
Raw hourly METARs
KLGA 231251Z 18013G21KT 1 1/2SM -RA BR OVC004 10/09 A2975 RMK AO2 SFC VIS 3 RAE21B43 SLP075 P0002 T01000089 $
KLGA 231351Z 17014G18KT 3/4SM R04/P6000FT -RA BR OVC003 10/09 A2972 RMK AO2 SFC VIS 3 RAE14B33 SLP063 P0002 T01000094 $
KLGA 231451Z 17012KT 2SM RA BR OVC004 11/11 A2970 RMK AO2 SFC VIS 4 SLP056 P0006 60010 T01110106 56030 $
KLGA 231551Z 17013G18KT 8SM -RA BKN005 BKN015 OVC060 12/11 A2963 RMK AO2 LTG DSNT SE SLP034 P0004 T01220111
KLGA 231651Z 17014G22KT 10SM -RA BKN006 BKN017 OVC060 12/11 A2956 RMK AO2 RAE1553B28 PRESFR SLP009 P0002 T01170106
KLGA 231751Z 23010KT 190V280 5SM R04/4000VP6000FT -RA BR BKN005 BKN011 OVC250 12/11 A2955 RMK AO2 RAE15B48 SLP005 P0001 60017 T01220111 10128 20039 56051
KLGA 231851Z 00000KT 10SM FEW040 SCT110 BKN250 14/11 A2952 RMK AO2 RAE10B14E26 SLP995 P0003 T01440111
KLGA 231951Z 25004KT 10SM FEW040 SCT100 BKN250 15/10 A2951 RMK AO2 SLP992 T01500100
KLGA 232051Z 26004KT 10SM FEW030 BKN075 BKN110 BKN250 14/09 A2952 RMK AO2 SLP997 60003 T01440089 55008
KLGA 232151Z COR 29012G17KT 9SM +RA BKN047 BKN070 OVC100 13/09 A2956 RMK AO2 RAB37 SLP009 P0008 T01330094 $
KLGA 232251Z 29015KT 10SM BKN050 BKN075 12/03 A2961 RMK AO2 PK WND 29031/2215 SLP028 RAB2137E03 P0000 T01170028 $
KLGA 232351Z 26014G21KT 10SM SCT075 BKN090 11/02 A2963 RMK AO2 SLP033 60011 T01110022 10156 20111 51036 $
KLGA 240051Z 28015G27KT 10SM FEW080 10/01 A2966 RMK AO2 PK WND 29028/0039 SLP045 T01000006 $